Warning: Javascript must be enabled to use all the features on this page!


Page Loading - Please Wait...

Click to hideNews Bulletins

Peak Streamflow for the Nation

USGS 10296000 W WALKER RV BLW L WALKER RV NR COLEVILLE, CA

Mono County, California
Hydrologic Unit Code 16050302
Latitude  38°22'47", Longitude 119°26'57" NAD27
Drainage area 181  square miles
Gage datum 6,591.39 feet above NGVD29
Output formats
Table
Graph
Tab-separated file
peakfq (watstore) format
Reselect output format
Water
Year
Date Gage
Height
(feet)
Stream-
flow
(cfs)
1938 1937-12-11   5,8002
1939 1939-05-29 2.94 944
1940 1940-05-25 4.66 1,690
1941 1941-06-20 5.01 2,040
1942 1942-07-05 5.02 1,900
1943 1943-06-01 5.15 2,110
1944 1944-06-08 4.34 1,360
1945 1945-06-22 5.03 1,880
1946 1946-05-20 4.73 1,470
1947 1947-05-03 4.59 1,360
1948 1948-05-26 4.45 1,250
1949 1949-05-27 4.72 1,500
1950 1950-06-01 5.19 1,960
1951 1950-11-20 8.10 6,220
1952 1952-06-08 5.51 2,650
1953 1953-06-19 4.93 2,030
1954 1954-05-19 4.60 1,710
1955 1955-06-10 5.13 2,230
1956 1955-12-23 7.41 5,180
1957 1957-06-03 4.97 2,070
1958 1958-06-24 5.23 2,330
1959 1959-05-13 3.42 866
1960 1960-06-02 4.01 1,270
1961 1961-05-25 3.45 866
1962 1962-06-19 4.58 1,770
1963 1963-02-01 5.85 2,870
1964 1964-06-14 3.522 916
1965 1964-12-23 5.76 2,950
1966 1966-05-20 3.67 1,050
1967 1967-07-03 5.95 3,100
1968 1968-06-02 4.07 1,270
1969 1969-06-04 5.74 3,470
1970 1970-06-04 4.286 1,480
1971 1971-06-27 4.98 2,080
1972 1972-05-31 4.42 1,620
1973 1973-05-31 5.32 2,400
1974 1974-06-07 5.01 2,090
1975 1975-06-01 5.42 2,590
1976 1976-05-13 3.44 827
1977 1977-06-01 2.972 571
1978 1978-06-14 4.92 2,010
1979 1979-05-26 4.97 2,000
1980 1980-07-01 5.55 2,780
1981 1981-06-05 3.83 1,130
1982 1982-05-27 5.13 2,330
1983 1983-06-18 6.00 3,300
1984 1984-05-30 4.97 2,090
1985 1985-06-07 3.88 1,230
1986 1986-06-01 5.50 3,090
1987 1987-05-17 3.37 963
1988 1988-05-16 3.536 819
1989 1989-05-08 3.96 1,260
1990 1990-05-06 3.10 655
1991 1991-06-10 4.15 1,730
1992 1992-05-08 3.18 820
1993 1993-06-21 4.39 1,990
1994 1994-05-31 3.51 1,120
1995 1995-07-09 6.04 3,860
1996 1996-05-16 6.55 4,610
1997 1997-01-02 10.11 12,300
1998 1998-06-22 5.616 2,590
1999 1999-05-29 5.65 2,630
2000 2000-05-25 5.22 2,200
2001 2001-05-16 4.84 1,850
2002 2002-06-01 4.67 1,760
2003 2003-05-30 5.93 3,010
2004 2004-05-05 4.16 1,350
2005 2005-05-28 6.39 3,470
2006 2006-05-20 6.59 3,770
2007 2007-05-17 3.53 766
2008 2008-05-18 5.05 1,910
2009 2009-05-20 5.16 2,010
2010 2010-06-07 6.58 3,730
2011 2011-06-24 6.66 4,040
2012 2012-04-23 3.77 972
2013 2013-05-13 4.07 1,180
2014 2014-05-26 3.79 972
2015 2015-06-11 3.50 746
2016 2016-06-08 4.94 1,670
2017 2017-06-20 6.95 4,260
2018 2018-04-07 5.76 3,220
2019 2019-06-07 6.16 2,970
2020 2020-04-29 4.19 1,300
?
  Peak Gage-Height Qualification Codes.
?
  Peak Streamflow Qualification Codes.